Latest Weather Observations for Frankston Beach

IDV60901

Issued at 12:21 pm EDT Monday 18 October 2021 (issued every 10 minutes, with the page automatically refreshed every 10 minutes)

About weather observations | Map of Melbourne area stations | Latest observations for Melbourne area | Other Formats
Station Details ID: 086371 Name: FRANKSTON BEACH Lat: -38.15 Lon: 145.12 Height: 6.0 m
Data from the previous 72 hours. | See also: Recent months at Frankston Beach
Date/Time
EDT
Temp
°C
App
Temp
°C
Dew
Point
°C
Rel
Hum
%
Delta-T
°C
Wind Press
QNH
hPa
Press
MSL
hPa
Rain since
9am
mm
Dir  Spd
km/h
Gust
km/h
Spd
kts
Gust
kts
18/12:00pm - - - - - WNW 15 17 8 9 - - -
18/11:30am - - - - - WNW 17 19 9 10 - - -
18/11:00am - - - - - WNW 15 19 8 10 - - -
18/10:30am - - - - - WNW 13 15 7 8 - - -
18/10:00am - - - - - WNW 17 19 9 10 - - -
18/09:30am - - - - - W 19 22 10 12 - - -
18/09:00am - - - - - W 19 22 10 12 - - -
18/08:30am - - - - - WNW 20 26 11 14 - - -
18/08:00am - - - - - WNW 26 32 14 17 - - -
18/07:30am - - - - - WNW 20 26 11 14 - - -
18/07:00am - - - - - WNW 20 24 11 13 - - -
18/06:30am - - - - - NW 17 22 9 12 - - -
18/06:00am - - - - - WSW 6 9 3 5 - - -
18/05:30am - - - - - CALM 0 0 0 0 - - -
18/05:00am - - - - - W 7 9 4 5 - - -
18/04:30am - - - - - SE 6 7 3 4 - - -
18/04:00am - - - - - E 7 9 4 5 - - -
18/03:30am - - - - - E 9 11 5 6 - - -
18/03:00am - - - - - ESE 9 13 5 7 - - -
18/02:30am - - - - - ESE 13 15 7 8 - - -
18/02:00am - - - - - ESE 9 13 5 7 - - -
18/01:30am - - - - - E 9 13 5 7 - - -
18/01:00am - - - - - E 9 13 5 7 - - -
18/12:30am - - - - - ESE 9 11 5 6 - - -
18/12:00am - - - - - ESE 9 13 5 7 - - -
 
Date/Time
EDT
Temp
°C
App
Temp
°C
Dew
Point
°C
Rel
Hum
%
Delta-T
°C
Wind Press
QNH
hPa
Press
MSL
hPa
Rain since
9am
mm
Dir  Spd
km/h
Gust
km/h
Spd
kts
Gust
kts
17/11:30pm - - - - - E 9 11 5 6 - - -
17/11:00pm - - - - - ESE 9 11 5 6 - - -
17/10:30pm - - - - - ESE 7 9 4 5 - - -
17/10:00pm - - - - - E 7 9 4 5 - - -
17/09:30pm - - - - - ESE 6 7 3 4 - - -
17/09:00pm - - - - - E 2 7 1 4 - - -
17/08:30pm - - - - - SE 6 7 3 4 - - -
17/08:00pm - - - - - SSE 6 9 3 5 - - -
17/07:30pm - - - - - SSW 13 17 7 9 - - -
17/07:00pm - - - - - SW 15 19 8 10 - - -
17/06:30pm - - - - - WSW 17 19 9 10 - - -
17/06:00pm - - - - - WSW 17 19 9 10 - - -
17/05:30pm - - - - - WSW 19 20 10 11 - - -
17/05:00pm - - - - - WSW 15 17 8 9 - - -
17/04:30pm - - - - - WSW 15 19 8 10 - - -
17/04:00pm - - - - - WSW 17 19 9 10 - - -
17/03:30pm - - - - - WSW 15 17 8 9 - - -
17/03:00pm - - - - - WNW 13 15 7 8 - - -
17/02:30pm - - - - - W 17 19 9 10 - - -
17/02:00pm - - - - - WNW 15 19 8 10 - - -
17/01:30pm - - - - - WNW 15 17 8 9 - - -
17/01:00pm - - - - - WNW 17 20 9 11 - - -
17/12:30pm - - - - - NW 17 20 9 11 - - -
17/12:00pm - - - - - WNW 20 24 11 13 - - -
17/11:30am - - - - - WNW 19 24 10 13 - - -
17/11:00am - - - - - WNW 22 26 12 14 - - -
17/10:30am - - - - - NW 20 24 11 13 - - -
17/10:00am - - - - - WNW 22 26 12 14 - - -
17/09:30am - - - - - WNW 22 26 12 14 - - -
17/09:00am - - - - - WNW 24 28 13 15 - - -
17/08:30am - - - - - WNW 24 28 13 15 - - -
17/08:00am - - - - - W 24 28 13 15 - - -
17/07:30am - - - - - WNW 24 30 13 16 - - -
17/07:00am - - - - - W 17 19 9 10 - - -
17/06:30am - - - - - WSW 15 19 8 10 - - -
17/06:00am - - - - - WSW 22 30 12 16 - - -
17/05:30am - - - - - SW 11 13 6 7 - - -
17/05:00am - - - - - W 20 26 11 14 - - -
17/04:30am - - - - - W 15 20 8 11 - - -
17/04:00am - - - - - SSW 9 17 5 9 - - -
17/03:30am - - - - - W 20 26 11 14 - - -
17/03:00am - - - - - W 17 20 9 11 - - -
17/02:30am - - - - - W 17 22 9 12 - - -
17/02:00am - - - - - WSW 30 37 16 20 - - -
17/01:30am - - - - - WSW 32 37 17 20 - - -
17/01:00am - - - - - SW 17 33 9 18 - - -
17/12:30am - - - - - SSW 13 19 7 10 - - -
17/12:00am - - - - - WSW 32 39 17 21 - - -
 
Date/Time
EDT
Temp
°C
App
Temp
°C
Dew
Point
°C
Rel
Hum
%
Delta-T
°C
Wind Press
QNH
hPa
Press
MSL
hPa
Rain since
9am
mm
Dir  Spd
km/h
Gust
km/h
Spd
kts
Gust
kts
16/11:30pm - - - - - WSW 30 37 16 20 - - -
16/11:00pm - - - - - WSW 32 41 17 22 - - -
16/10:30pm - - - - - SW 24 32 13 17 - - -
16/10:00pm - - - - - SW 30 35 16 19 - - -
16/09:30pm - - - - - SW 28 39 15 21 - - -
16/09:00pm - - - - - SW 30 39 16 21 - - -
16/08:51pm - - - - - SW 28 48 15 26 - - -
16/08:30pm - - - - - SW 26 33 14 18 - - -
16/08:00pm - - - - - SW 22 32 12 17 - - -
16/07:30pm - - - - - SW 28 37 15 20 - - -
16/07:00pm - - - - - SW 28 39 15 21 - - -
16/06:30pm - - - - - SW 35 44 19 24 - - -
16/06:00pm - - - - - SW 35 43 19 23 - - -
16/05:30pm - - - - - SW 39 48 21 26 - - -
16/05:00pm - - - - - SW 39 50 21 27 - - -
16/04:30pm - - - - - SW 37 50 20 27 - - -
16/04:00pm - - - - - SW 32 48 17 26 - - -
16/03:59pm - - - - - SW 30 48 16 26 - - -
16/03:30pm - - - - - SW 33 48 18 26 - - -
16/03:06pm - - - - - SW 33 52 18 28 - - -
16/03:00pm - - - - - SW 30 41 16 22 - - -
16/02:43pm - - - - - SW 35 56 19 30 - - -
16/02:30pm - - - - - WSW 39 56 21 30 - - -
16/02:20pm - - - - - SW 35 54 19 29 - - -
16/02:00pm - - - - - SW 37 50 20 27 - - -
16/01:30pm - - - - - SW 39 50 21 27 - - -
16/01:00pm - - - - - SW 43 52 23 28 - - -
16/12:30pm - - - - - SW 37 46 20 25 - - -
16/12:00pm - - - - - SW 41 52 22 28 - - -
16/11:30am - - - - - SW 41 52 22 28 - - -
16/11:00am - - - - - SW 37 50 20 27 - - -
16/10:30am - - - - - SW 35 48 19 26 - - -
16/10:00am - - - - - SW 41 56 22 30 - - -
16/09:30am - - - - - SW 44 57 24 31 - - -
16/09:02am - - - - - SW 44 63 24 34 - - -
16/09:00am - - - - - SW 46 63 25 34 - - -
16/08:44am - - - - - SW 44 65 24 35 - - -
16/08:30am - - - - - SW 41 56 22 30 - - -
16/08:00am - - - - - SW 35 52 19 28 - - -
16/07:52am - - - - - SW 33 52 18 28 - - -
16/07:30am - - - - - SW 30 46 16 25 - - -
16/07:02am - - - - - SW 32 54 17 29 - - -
16/07:00am - - - - - SW 32 44 17 24 - - -
16/06:39am - - - - - SW 30 50 16 27 - - -
16/06:30am - - - - - SW 28 39 15 21 - - -
16/06:00am - - - - - SW 26 44 14 24 - - -
16/05:30am - - - - - SW 30 43 16 23 - - -
16/05:00am - - - - - SW 32 44 17 24 - - -
16/04:30am - - - - - SW 41 61 22 33 - - -
16/04:00am - - - - - SW 39 57 21 31 - - -
16/03:30am - - - - - SW 39 59 21 32 - - -
16/03:00am - - - - - SW 33 59 18 32 - - -
16/02:46am - - - - - SW 41 59 22 32 - - -
16/02:30am - - - - - SW 39 50 21 27 - - -
16/02:04am - - - - - SW 39 57 21 31 - - -
16/02:00am - - - - - SW 43 57 23 31 - - -
16/01:30am - - - - - SW 46 61 25 33 - - -
16/01:03am - - - - - SW 46 65 25 35 - - -
16/01:00am - - - - - SW 46 59 25 32 - - -
16/12:30am - - - - - SW 57 76 31 41 - - -
16/12:02am - - - - - WSW 57 78 31 42 - - -
16/12:00am - - - - - WSW 57 70 31 38 - - -
 
Date/Time
EDT
Temp
°C
App
Temp
°C
Dew
Point
°C
Rel
Hum
%
Delta-T
°C
Wind Press
QNH
hPa
Press
MSL
hPa
Rain since
9am
mm
Dir  Spd
km/h
Gust
km/h
Spd
kts
Gust
kts
15/11:30pm - - - - - WSW 52 61 28 33 - - -
15/11:00pm - - - - - WSW 54 65 29 35 - - -
15/10:33pm - - - - - W 43 61 23 33 - - -
15/10:30pm - - - - - W 43 54 23 29 - - -
15/10:00pm - - - - - W 46 56 25 30 - - -
15/09:30pm - - - - - W 50 63 27 34 - - -
15/09:00pm - - - - - W 50 61 27 33 - - -
15/08:30pm - - - - - W 48 59 26 32 - - -
15/08:00pm - - - - - WNW 44 56 24 30 - - -
15/07:30pm - - - - - WNW 43 52 23 28 - - -
15/07:00pm - - - - - WNW 41 50 22 27 - - -
15/06:30pm - - - - - WNW 39 46 21 25 - - -
15/06:00pm - - - - - W 37 43 20 23 - - -
15/05:30pm - - - - - W 37 48 20 26 - - -
15/05:00pm - - - - - W 39 46 21 25 - - -
15/04:30pm - - - - - W 35 41 19 22 - - -
15/04:00pm - - - - - NW 35 43 19 23 - - -
15/03:30pm - - - - - NW 33 44 18 24 - - -
15/03:00pm - - - - - WNW 37 46 20 25 - - -
15/02:30pm - - - - - W 39 46 21 25 - - -
15/02:00pm - - - - - W 39 48 21 26 - - -
15/01:30pm - - - - - W 37 43 20 23 - - -
15/01:00pm - - - - - WNW 33 39 18 21 - - -
15/12:30pm - - - - - WNW 33 39 18 21 - - -

Latest Capital City Observations: Canberra | Sydney | Melbourne | Brisbane | Adelaide | Perth | Hobart | Darwin

Other formats

Comma delimited format used in spreadsheet applications
http://www.bom.gov.au/fwo/IDV60901/IDV60901.94871.axf

JavaScript Object Notation format (JSON) in row-major order
http://www.bom.gov.au/fwo/IDV60901/IDV60901.94871.json

Data quality

Most of these data are generated automatically and are frequently updated. Quality checks on data are not normally performed. It is possible for incorrect values to appear. Refer to information at About Latest Weather Observations and please check the disclaimer before using these data.